Cottage Grove, OR (97424)

10:12 AM PST on February 27, 2017 (GMT -0800)
ME8614 | | Change Station
Active Advisory: Winter Weather Advisory

Elev 639 ft 43.79 °N, 123.07 °W | Updated 7 minutes ago

Overcast
Overcast
38.0 °F
Feels Like 38 °F
N
0.0
Wind Variable Wind from West
Gusts 2.0 mph

Today
High -- | Low -- °F
--% Chance of Precip.
Yesterday
High -- | Low -- °F
Precip. -- in
Pressure 29.88 in
Visibility 9.0 miles
Clouds Scattered Clouds 1300 ft
Mostly Cloudy 2600 ft
Overcast 3500 ft
Windchill 38 °F
Dew Point 37 °F
Humidity 96%
Rainfall 0.15 in
Snow Depth Not available.
6:51 AM 5:58 PM
New Moon, 2% visible
METAR KEUG 271754Z 21009KT 9SM -RA SCT013 BKN026 OVC035 04/03 A2987 RMK AO2 RAE1658B42 SLP119 P0000 60000 T00390028 10039 20006 51007
Pressure 29.88 in
Visibility 9.0 miles
Clouds Scattered Clouds 1300 ft
Mostly Cloudy 2600 ft
Overcast 3500 ft
Windchill 38 °F
Dew Point 37 °F
Humidity 96%
Rainfall 0.15 in
Snow Depth Not available.
6:51 AM 5:58 PM
New Moon, 2% visible
METAR KEUG 271754Z 21009KT 9SM -RA SCT013 BKN026 OVC035 04/03 A2987 RMK AO2 RAE1658B42 SLP119 P0000 60000 T00390028 10039 20006 51007

Get Your Daily Forecast Email!

Thanks for signing up!

Be on the lookout for a verification email in your inbox.

You'll start receiving the daily forecast at 8 AM.

×

10-Day Weather Forecast

Almanac

Astronomy

Feb. 27, 2017 Rise Set
Actual Time
Civil Twilight
Nautical Twilight
Astronomical Twilight
Moon
Length of Visible Light
Length of Day
Tomorrow will be .
, % of the Moon is Illuminated

Today's Extremes

State Highs State Lows

Community

WunderPhotos

Upload Photos

1,962,540 photos uploaded!

WunderBlog® & News

Nearby

Air Quality

  Air Quality AQ Index Pollutant
Not available.

Snow Depth

Station Depth Elevation

Earthquake Activity

City Distance Mag. Time & Date
Minimum magnitude displayed is 2.5.

Coastal Water Temperatures

Place Temperature

Stations

Nearby Weather Stations

Station Location Temp. Windchill Dew Point Humidity Wind Precip. Elev Updated Type
                   

Watches & Warnings

Winter Weather Advisory
Issued: 8:52 AM PST Feb. 27, 2017 – National Weather Service

... Winter Weather Advisory in effect until 10 PM PST this
evening...

The National Weather Service in Portland has issued a Winter
Weather Advisory for snow... which is in effect until 10 PM PST
this evening.

* Timing... snow showers increasing late morning and continuing
through the evening.

* Snow level... rising to 1500 feet by evening.

* Snow accumulations... total by late evening from 2 to 6 inches,
with heaviest amounts above 1500 feet.

* Impacts... roads will be snow covered and slick at times.

Precautionary/preparedness actions...

A Winter Weather Advisory for snow means that periods of snow
will cause primarily travel difficulties. Be prepared for snow
covered roads and limited visibilities, and use caution while
driving.